sensor_id;sensor_type;location;lat;lon;timestamp;P1;durP1;ratioP1;P2;durP2;ratioP2
75818;SDS011;64453;51.944;9.796;2023-04-09T00:02:01;30.50;;;25.50;;
75818;SDS011;64453;51.944;9.796;2023-04-09T00:04:27;31.93;;;25.97;;
75818;SDS011;64453;51.944;9.796;2023-04-09T00:06:54;29.60;;;24.67;;
75818;SDS011;64453;51.944;9.796;2023-04-09T00:09:21;30.80;;;24.77;;
75818;SDS011;64453;51.944;9.796;2023-04-09T00:11:49;32.83;;;25.77;;
75818;SDS011;64453;51.944;9.796;2023-04-09T00:14:16;28.80;;;23.70;;
75818;SDS011;64453;51.944;9.796;2023-04-09T00:16:43;30.70;;;24.70;;
75818;SDS011;64453;51.944;9.796;2023-04-09T00:19:10;29.67;;;25.20;;
75818;SDS011;64453;51.944;9.796;2023-04-09T00:21:37;34.77;;;27.67;;
75818;SDS011;64453;51.944;9.796;2023-04-09T00:24:04;28.60;;;24.00;;
75818;SDS011;64453;51.944;9.796;2023-04-09T00:26:31;26.50;;;23.60;;
75818;SDS011;64453;51.944;9.796;2023-04-09T00:29:00;28.57;;;24.77;;
75818;SDS011;64453;51.944;9.796;2023-04-09T00:31:27;29.10;;;23.90;;
75818;SDS011;64453;51.944;9.796;2023-04-09T00:33:54;28.63;;;23.20;;
75818;SDS011;64453;51.944;9.796;2023-04-09T00:36:21;26.43;;;23.20;;
75818;SDS011;64453;51.944;9.796;2023-04-09T00:38:48;31.70;;;25.67;;
75818;SDS011;64453;51.944;9.796;2023-04-09T00:41:17;27.37;;;24.23;;
75818;SDS011;64453;51.944;9.796;2023-04-09T00:43:45;30.33;;;24.60;;
75818;SDS011;64453;51.944;9.796;2023-04-09T00:46:13;28.90;;;24.47;;
75818;SDS011;64453;51.944;9.796;2023-04-09T00:48:40;30.57;;;26.63;;
75818;SDS011;64453;51.944;9.796;2023-04-09T00:51:07;29.93;;;24.97;;
75818;SDS011;64453;51.944;9.796;2023-04-09T00:53:34;29.37;;;25.53;;
75818;SDS011;64453;51.944;9.796;2023-04-09T00:56:01;32.53;;;25.50;;
75818;SDS011;64453;51.944;9.796;2023-04-09T00:58:29;29.83;;;25.83;;
75818;SDS011;64453;51.944;9.796;2023-04-09T01:00:56;31.17;;;27.47;;
75818;SDS011;64453;51.944;9.796;2023-04-09T01:03:24;31.97;;;28.10;;
75818;SDS011;64453;51.944;9.796;2023-04-09T01:05:53;34.83;;;27.27;;
75818;SDS011;64453;51.944;9.796;2023-04-09T01:08:32;29.47;;;26.27;;
75818;SDS011;64453;51.944;9.796;2023-04-09T01:11:12;29.33;;;25.20;;
75818;SDS011;64453;51.944;9.796;2023-04-09T01:13:47;34.97;;;25.37;;
75818;SDS011;64453;51.944;9.796;2023-04-09T01:16:21;31.67;;;26.07;;
75818;SDS011;64453;51.944;9.796;2023-04-09T01:18:51;32.80;;;28.60;;
75818;SDS011;64453;51.944;9.796;2023-04-09T01:21:24;29.90;;;26.10;;
75818;SDS011;64453;51.944;9.796;2023-04-09T01:23:57;30.20;;;26.23;;
75818;SDS011;64453;51.944;9.796;2023-04-09T01:26:40;29.17;;;26.07;;
75818;SDS011;64453;51.944;9.796;2023-04-09T01:29:20;31.43;;;28.00;;
75818;SDS011;64453;51.944;9.796;2023-04-09T01:31:49;35.03;;;29.30;;
75818;SDS011;64453;51.944;9.796;2023-04-09T01:34:17;33.43;;;28.70;;
75818;SDS011;64453;51.944;9.796;2023-04-09T01:36:47;32.93;;;28.30;;
75818;SDS011;64453;51.944;9.796;2023-04-09T01:39:23;28.30;;;25.07;;
75818;SDS011;64453;51.944;9.796;2023-04-09T01:41:51;29.00;;;25.93;;
75818;SDS011;64453;51.944;9.796;2023-04-09T01:44:18;29.13;;;25.27;;
75818;SDS011;64453;51.944;9.796;2023-04-09T01:46:49;29.67;;;26.57;;
75818;SDS011;64453;51.944;9.796;2023-04-09T01:49:17;30.03;;;26.63;;
75818;SDS011;64453;51.944;9.796;2023-04-09T01:51:44;30.90;;;27.47;;
75818;SDS011;64453;51.944;9.796;2023-04-09T01:54:13;33.97;;;28.93;;
75818;SDS011;64453;51.944;9.796;2023-04-09T01:56:42;37.67;;;31.13;;
75818;SDS011;64453;51.944;9.796;2023-04-09T01:59:10;34.50;;;30.80;;
75818;SDS011;64453;51.944;9.796;2023-04-09T02:01:40;36.37;;;32.07;;
75818;SDS011;64453;51.944;9.796;2023-04-09T02:04:14;34.93;;;30.07;;
75818;SDS011;64453;51.944;9.796;2023-04-09T02:06:46;36.23;;;30.70;;
75818;SDS011;64453;51.944;9.796;2023-04-09T02:09:19;33.90;;;29.73;;
75818;SDS011;64453;51.944;9.796;2023-04-09T02:11:47;34.27;;;30.00;;
75818;SDS011;64453;51.944;9.796;2023-04-09T02:14:15;34.20;;;29.13;;
75818;SDS011;64453;51.944;9.796;2023-04-09T02:16:47;34.03;;;30.50;;
75818;SDS011;64453;51.944;9.796;2023-04-09T02:19:14;36.60;;;31.83;;
75818;SDS011;64453;51.944;9.796;2023-04-09T02:21:41;34.30;;;30.60;;
75818;SDS011;64453;51.944;9.796;2023-04-09T02:24:08;34.33;;;30.73;;
75818;SDS011;64453;51.944;9.796;2023-04-09T02:26:35;36.87;;;31.00;;
75818;SDS011;64453;51.944;9.796;2023-04-09T02:29:02;34.77;;;30.97;;
75818;SDS011;64453;51.944;9.796;2023-04-09T02:31:29;37.07;;;32.67;;
75818;SDS011;64453;51.944;9.796;2023-04-09T02:33:57;36.10;;;32.17;;
75818;SDS011;64453;51.944;9.796;2023-04-09T02:36:24;33.13;;;29.60;;
75818;SDS011;64453;51.944;9.796;2023-04-09T02:38:51;34.40;;;30.70;;
75818;SDS011;64453;51.944;9.796;2023-04-09T02:41:18;35.13;;;31.33;;
75818;SDS011;64453;51.944;9.796;2023-04-09T02:43:45;33.47;;;29.57;;
75818;SDS011;64453;51.944;9.796;2023-04-09T02:46:12;38.27;;;31.77;;
75818;SDS011;64453;51.944;9.796;2023-04-09T02:48:38;34.90;;;31.10;;
75818;SDS011;64453;51.944;9.796;2023-04-09T02:51:07;33.17;;;29.27;;
75818;SDS011;64453;51.944;9.796;2023-04-09T02:53:33;32.90;;;29.40;;
75818;SDS011;64453;51.944;9.796;2023-04-09T02:56:01;32.87;;;28.27;;
75818;SDS011;64453;51.944;9.796;2023-04-09T02:58:29;33.60;;;29.93;;
75818;SDS011;64453;51.944;9.796;2023-04-09T03:00:56;32.83;;;29.30;;
75818;SDS011;64453;51.944;9.796;2023-04-09T03:03:22;33.40;;;28.67;;
75818;SDS011;64453;51.944;9.796;2023-04-09T03:05:50;32.40;;;29.00;;
75818;SDS011;64453;51.944;9.796;2023-04-09T03:08:18;34.63;;;30.70;;
75818;SDS011;64453;51.944;9.796;2023-04-09T03:10:45;35.23;;;31.43;;
75818;SDS011;64453;51.944;9.796;2023-04-09T03:13:11;32.97;;;29.47;;
75818;SDS011;64453;51.944;9.796;2023-04-09T03:15:38;33.13;;;29.47;;
75818;SDS011;64453;51.944;9.796;2023-04-09T03:18:05;33.90;;;28.73;;
75818;SDS011;64453;51.944;9.796;2023-04-09T03:20:32;32.90;;;29.27;;
75818;SDS011;64453;51.944;9.796;2023-04-09T03:23:02;30.53;;;27.23;;
75818;SDS011;64453;51.944;9.796;2023-04-09T03:25:30;36.57;;;31.67;;
75818;SDS011;64453;51.944;9.796;2023-04-09T03:27:57;38.13;;;33.63;;
75818;SDS011;64453;51.944;9.796;2023-04-09T03:30:24;36.87;;;32.63;;
75818;SDS011;64453;51.944;9.796;2023-04-09T03:32:51;38.97;;;32.87;;
75818;SDS011;64453;51.944;9.796;2023-04-09T03:35:18;37.30;;;31.67;;
75818;SDS011;64453;51.944;9.796;2023-04-09T03:37:45;34.57;;;30.10;;
75818;SDS011;64453;51.944;9.796;2023-04-09T03:40:12;32.60;;;29.00;;
75818;SDS011;64453;51.944;9.796;2023-04-09T03:42:42;34.90;;;31.03;;
75818;SDS011;64453;51.944;9.796;2023-04-09T03:45:09;34.50;;;29.47;;
75818;SDS011;64453;51.944;9.796;2023-04-09T03:47:36;36.47;;;30.97;;
75818;SDS011;64453;51.944;9.796;2023-04-09T03:50:03;36.83;;;31.63;;
75818;SDS011;64453;51.944;9.796;2023-04-09T03:52:31;36.67;;;30.70;;
75818;SDS011;64453;51.944;9.796;2023-04-09T03:54:58;34.70;;;30.70;;
75818;SDS011;64453;51.944;9.796;2023-04-09T03:57:25;35.00;;;30.30;;
75818;SDS011;64453;51.944;9.796;2023-04-09T03:59:53;34.17;;;30.47;;
75818;SDS011;64453;51.944;9.796;2023-04-09T04:02:20;38.00;;;33.23;;
75818;SDS011;64453;51.944;9.796;2023-04-09T04:04:47;37.03;;;32.20;;
75818;SDS011;64453;51.944;9.796;2023-04-09T04:07:13;35.97;;;30.90;;
75818;SDS011;64453;51.944;9.796;2023-04-09T04:09:40;36.13;;;30.77;;
75818;SDS011;64453;51.944;9.796;2023-04-09T04:12:07;35.63;;;31.77;;
75818;SDS011;64453;51.944;9.796;2023-04-09T04:14:34;35.43;;;30.53;;
75818;SDS011;64453;51.944;9.796;2023-04-09T04:17:02;36.13;;;30.57;;
75818;SDS011;64453;51.944;9.796;2023-04-09T04:19:29;34.20;;;30.37;;
75818;SDS011;64453;51.944;9.796;2023-04-09T04:21:56;32.60;;;29.10;;
75818;SDS011;64453;51.944;9.796;2023-04-09T04:24:22;34.13;;;30.43;;
75818;SDS011;64453;51.944;9.796;2023-04-09T04:26:49;34.97;;;30.70;;
75818;SDS011;64453;51.944;9.796;2023-04-09T04:29:16;34.47;;;29.87;;
75818;SDS011;64453;51.944;9.796;2023-04-09T04:31:43;32.83;;;29.20;;
75818;SDS011;64453;51.944;9.796;2023-04-09T04:34:11;34.07;;;29.07;;
75818;SDS011;64453;51.944;9.796;2023-04-09T04:36:38;36.43;;;31.10;;
75818;SDS011;64453;51.944;9.796;2023-04-09T04:39:05;35.73;;;30.73;;
75818;SDS011;64453;51.944;9.796;2023-04-09T04:41:32;33.73;;;29.67;;
75818;SDS011;64453;51.944;9.796;2023-04-09T04:43:58;35.20;;;31.13;;
75818;SDS011;64453;51.944;9.796;2023-04-09T04:46:25;37.57;;;32.00;;
75818;SDS011;64453;51.944;9.796;2023-04-09T04:48:52;36.37;;;29.63;;
75818;SDS011;64453;51.944;9.796;2023-04-09T04:51:20;36.00;;;30.47;;
75818;SDS011;64453;51.944;9.796;2023-04-09T04:53:47;34.33;;;30.40;;
75818;SDS011;64453;51.944;9.796;2023-04-09T04:56:14;36.33;;;31.40;;
75818;SDS011;64453;51.944;9.796;2023-04-09T04:58:41;37.67;;;31.17;;
75818;SDS011;64453;51.944;9.796;2023-04-09T05:01:08;37.17;;;30.90;;
75818;SDS011;64453;51.944;9.796;2023-04-09T05:03:35;35.47;;;30.23;;
75818;SDS011;64453;51.944;9.796;2023-04-09T05:06:02;36.77;;;30.17;;
75818;SDS011;64453;51.944;9.796;2023-04-09T05:08:30;34.30;;;29.97;;
75818;SDS011;64453;51.944;9.796;2023-04-09T05:10:57;34.33;;;29.77;;
75818;SDS011;64453;51.944;9.796;2023-04-09T05:13:24;35.70;;;30.13;;
75818;SDS011;64453;51.944;9.796;2023-04-09T05:15:51;36.73;;;29.83;;
75818;SDS011;64453;51.944;9.796;2023-04-09T05:18:17;33.83;;;29.57;;
75818;SDS011;64453;51.944;9.796;2023-04-09T05:20:44;33.67;;;29.87;;
75818;SDS011;64453;51.944;9.796;2023-04-09T05:23:11;32.60;;;28.57;;
75818;SDS011;64453;51.944;9.796;2023-04-09T05:25:40;35.00;;;29.33;;
75818;SDS011;64453;51.944;9.796;2023-04-09T05:28:06;35.73;;;30.50;;
75818;SDS011;64453;51.944;9.796;2023-04-09T05:30:35;37.17;;;29.97;;
75818;SDS011;64453;51.944;9.796;2023-04-09T05:33:02;36.00;;;30.93;;
75818;SDS011;64453;51.944;9.796;2023-04-09T05:35:29;33.40;;;28.90;;
75818;SDS011;64453;51.944;9.796;2023-04-09T05:37:55;34.20;;;29.97;;
75818;SDS011;64453;51.944;9.796;2023-04-09T05:40:22;35.90;;;31.00;;
75818;SDS011;64453;51.944;9.796;2023-04-09T05:42:51;37.50;;;31.73;;
75818;SDS011;64453;51.944;9.796;2023-04-09T05:45:18;39.23;;;30.80;;
75818;SDS011;64453;51.944;9.796;2023-04-09T05:47:45;33.63;;;29.77;;
75818;SDS011;64453;51.944;9.796;2023-04-09T05:50:12;33.80;;;29.63;;
75818;SDS011;64453;51.944;9.796;2023-04-09T05:52:39;37.23;;;29.70;;
75818;SDS011;64453;51.944;9.796;2023-04-09T05:55:05;33.10;;;29.33;;
75818;SDS011;64453;51.944;9.796;2023-04-09T05:57:33;34.60;;;29.80;;
75818;SDS011;64453;51.944;9.796;2023-04-09T06:00:02;37.10;;;31.20;;
75818;SDS011;64453;51.944;9.796;2023-04-09T06:02:30;35.83;;;29.33;;
75818;SDS011;64453;51.944;9.796;2023-04-09T06:04:57;35.10;;;27.60;;
75818;SDS011;64453;51.944;9.796;2023-04-09T06:07:23;36.57;;;29.50;;
75818;SDS011;64453;51.944;9.796;2023-04-09T06:09:50;30.90;;;26.97;;
75818;SDS011;64453;51.944;9.796;2023-04-09T06:12:17;33.63;;;29.13;;
75818;SDS011;64453;51.944;9.796;2023-04-09T06:14:44;30.77;;;26.70;;
75818;SDS011;64453;51.944;9.796;2023-04-09T06:17:14;31.67;;;26.07;;
75818;SDS011;64453;51.944;9.796;2023-04-09T06:19:41;36.10;;;28.80;;
75818;SDS011;64453;51.944;9.796;2023-04-09T06:22:08;40.37;;;31.63;;
75818;SDS011;64453;51.944;9.796;2023-04-09T06:24:35;52.43;;;42.60;;
75818;SDS011;64453;51.944;9.796;2023-04-09T06:27:02;32.13;;;28.40;;
75818;SDS011;64453;51.944;9.796;2023-04-09T06:29:30;30.30;;;26.67;;
75818;SDS011;64453;51.944;9.796;2023-04-09T06:31:57;28.67;;;25.57;;
75818;SDS011;64453;51.944;9.796;2023-04-09T06:34:25;29.80;;;26.20;;
75818;SDS011;64453;51.944;9.796;2023-04-09T06:36:52;33.90;;;27.57;;
75818;SDS011;64453;51.944;9.796;2023-04-09T06:39:20;36.80;;;29.07;;
75818;SDS011;64453;51.944;9.796;2023-04-09T06:41:47;32.97;;;28.23;;
75818;SDS011;64453;51.944;9.796;2023-04-09T06:44:14;32.10;;;27.47;;
75818;SDS011;64453;51.944;9.796;2023-04-09T06:46:41;32.50;;;27.20;;
75818;SDS011;64453;51.944;9.796;2023-04-09T06:49:09;30.20;;;26.17;;
75818;SDS011;64453;51.944;9.796;2023-04-09T06:51:37;30.50;;;27.20;;
75818;SDS011;64453;51.944;9.796;2023-04-09T06:54:04;30.70;;;25.90;;
75818;SDS011;64453;51.944;9.796;2023-04-09T06:56:30;32.43;;;26.57;;
75818;SDS011;64453;51.944;9.796;2023-04-09T06:58:57;29.13;;;25.23;;
75818;SDS011;64453;51.944;9.796;2023-04-09T07:01:24;32.40;;;26.70;;
75818;SDS011;64453;51.944;9.796;2023-04-09T07:03:52;29.10;;;25.90;;
75818;SDS011;64453;51.944;9.796;2023-04-09T07:06:18;27.90;;;24.60;;
75818;SDS011;64453;51.944;9.796;2023-04-09T07:08:47;28.87;;;25.20;;
75818;SDS011;64453;51.944;9.796;2023-04-09T07:11:13;28.13;;;25.13;;
75818;SDS011;64453;51.944;9.796;2023-04-09T07:13:41;28.93;;;25.23;;
75818;SDS011;64453;51.944;9.796;2023-04-09T07:16:08;30.10;;;25.43;;
75818;SDS011;64453;51.944;9.796;2023-04-09T07:18:35;28.40;;;24.50;;
75818;SDS011;64453;51.944;9.796;2023-04-09T07:21:02;30.13;;;25.33;;
75818;SDS011;64453;51.944;9.796;2023-04-09T07:23:32;30.83;;;24.77;;
75818;SDS011;64453;51.944;9.796;2023-04-09T07:26:02;30.27;;;24.80;;
75818;SDS011;64453;51.944;9.796;2023-04-09T07:28:29;28.87;;;23.37;;
75818;SDS011;64453;51.944;9.796;2023-04-09T07:30:56;27.80;;;24.03;;
75818;SDS011;64453;51.944;9.796;2023-04-09T07:33:26;28.20;;;24.97;;
75818;SDS011;64453;51.944;9.796;2023-04-09T07:35:53;25.77;;;22.93;;
75818;SDS011;64453;51.944;9.796;2023-04-09T07:38:20;27.57;;;23.47;;
75818;SDS011;64453;51.944;9.796;2023-04-09T07:40:46;25.23;;;22.47;;
75818;SDS011;64453;51.944;9.796;2023-04-09T07:43:15;26.20;;;23.23;;
75818;SDS011;64453;51.944;9.796;2023-04-09T07:45:42;26.17;;;23.27;;
75818;SDS011;64453;51.944;9.796;2023-04-09T07:48:09;25.60;;;22.47;;
75818;SDS011;64453;51.944;9.796;2023-04-09T07:50:36;24.10;;;21.60;;
75818;SDS011;64453;51.944;9.796;2023-04-09T07:53:03;27.07;;;24.07;;
75818;SDS011;64453;51.944;9.796;2023-04-09T07:55:30;24.37;;;21.77;;
75818;SDS011;64453;51.944;9.796;2023-04-09T07:57:57;25.03;;;22.33;;
75818;SDS011;64453;51.944;9.796;2023-04-09T08:00:25;27.00;;;23.57;;
75818;SDS011;64453;51.944;9.796;2023-04-09T08:02:52;28.67;;;24.30;;
75818;SDS011;64453;51.944;9.796;2023-04-09T08:05:19;25.40;;;22.73;;
75818;SDS011;64453;51.944;9.796;2023-04-09T08:07:46;25.97;;;22.93;;
75818;SDS011;64453;51.944;9.796;2023-04-09T08:10:13;26.20;;;23.40;;
75818;SDS011;64453;51.944;9.796;2023-04-09T08:12:40;26.90;;;23.50;;
75818;SDS011;64453;51.944;9.796;2023-04-09T08:15:07;27.37;;;24.10;;
75818;SDS011;64453;51.944;9.796;2023-04-09T08:17:37;24.00;;;21.47;;
75818;SDS011;64453;51.944;9.796;2023-04-09T08:20:05;22.83;;;20.33;;
75818;SDS011;64453;51.944;9.796;2023-04-09T08:22:33;23.90;;;21.07;;
75818;SDS011;64453;51.944;9.796;2023-04-09T08:25:00;23.87;;;21.33;;
75818;SDS011;64453;51.944;9.796;2023-04-09T08:27:26;21.77;;;19.60;;
75818;SDS011;64453;51.944;9.796;2023-04-09T08:29:53;21.53;;;19.43;;
75818;SDS011;64453;51.944;9.796;2023-04-09T08:32:20;22.80;;;20.27;;
75818;SDS011;64453;51.944;9.796;2023-04-09T08:34:48;22.90;;;19.80;;
75818;SDS011;64453;51.944;9.796;2023-04-09T08:37:15;22.60;;;20.30;;
75818;SDS011;64453;51.944;9.796;2023-04-09T08:39:42;22.30;;;20.00;;
75818;SDS011;64453;51.944;9.796;2023-04-09T08:42:09;22.90;;;20.40;;
75818;SDS011;64453;51.944;9.796;2023-04-09T08:44:37;22.43;;;20.13;;
75818;SDS011;64453;51.944;9.796;2023-04-09T08:47:06;21.47;;;19.30;;
75818;SDS011;64453;51.944;9.796;2023-04-09T08:49:35;21.20;;;18.97;;
75818;SDS011;64453;51.944;9.796;2023-04-09T08:52:06;22.10;;;19.80;;
75818;SDS011;64453;51.944;9.796;2023-04-09T08:54:33;23.63;;;21.13;;
75818;SDS011;64453;51.944;9.796;2023-04-09T08:57:03;20.70;;;18.60;;
75818;SDS011;64453;51.944;9.796;2023-04-09T08:59:30;21.90;;;19.63;;
75818;SDS011;64453;51.944;9.796;2023-04-09T09:02:07;20.37;;;18.30;;
75818;SDS011;64453;51.944;9.796;2023-04-09T09:04:44;22.90;;;20.60;;
75818;SDS011;64453;51.944;9.796;2023-04-09T09:07:13;22.37;;;20.10;;
75818;SDS011;64453;51.944;9.796;2023-04-09T09:09:51;21.63;;;19.33;;
75818;SDS011;64453;51.944;9.796;2023-04-09T09:12:32;22.30;;;20.10;;
75818;SDS011;64453;51.944;9.796;2023-04-09T09:15:02;23.20;;;20.73;;
75818;SDS011;64453;51.944;9.796;2023-04-09T09:17:31;23.40;;;20.97;;
75818;SDS011;64453;51.944;9.796;2023-04-09T09:20:01;22.00;;;19.70;;
75818;SDS011;64453;51.944;9.796;2023-04-09T09:22:48;22.03;;;19.73;;
75818;SDS011;64453;51.944;9.796;2023-04-09T09:25:17;22.03;;;19.73;;
75818;SDS011;64453;51.944;9.796;2023-04-09T09:27:47;21.27;;;19.10;;
75818;SDS011;64453;51.944;9.796;2023-04-09T09:30:19;22.20;;;20.00;;
75818;SDS011;64453;51.944;9.796;2023-04-09T09:32:48;22.80;;;20.50;;
75818;SDS011;64453;51.944;9.796;2023-04-09T09:35:18;21.87;;;19.67;;
75818;SDS011;64453;51.944;9.796;2023-04-09T09:37:45;22.70;;;20.40;;
75818;SDS011;64453;51.944;9.796;2023-04-09T09:40:25;23.27;;;20.87;;
75818;SDS011;64453;51.944;9.796;2023-04-09T09:42:53;23.23;;;20.87;;
75818;SDS011;64453;51.944;9.796;2023-04-09T09:45:21;21.80;;;19.50;;
75818;SDS011;64453;51.944;9.796;2023-04-09T09:47:49;24.47;;;21.80;;
75818;SDS011;64453;51.944;9.796;2023-04-09T09:50:16;22.67;;;20.43;;
75818;SDS011;64453;51.944;9.796;2023-04-09T09:52:43;23.10;;;20.80;;
75818;SDS011;64453;51.944;9.796;2023-04-09T09:55:12;21.60;;;19.40;;
75818;SDS011;64453;51.944;9.796;2023-04-09T09:57:43;21.33;;;19.13;;
75818;SDS011;64453;51.944;9.796;2023-04-09T10:00:12;22.57;;;20.27;;
75818;SDS011;64453;51.944;9.796;2023-04-09T10:02:42;43.23;;;39.00;;
75818;SDS011;64453;51.944;9.796;2023-04-09T10:05:15;30.10;;;26.90;;
75818;SDS011;64453;51.944;9.796;2023-04-09T10:07:42;23.57;;;21.17;;
75818;SDS011;64453;51.944;9.796;2023-04-09T10:10:10;23.23;;;20.80;;
75818;SDS011;64453;51.944;9.796;2023-04-09T10:12:39;21.70;;;19.43;;
75818;SDS011;64453;51.944;9.796;2023-04-09T10:15:08;20.57;;;18.57;;
75818;SDS011;64453;51.944;9.796;2023-04-09T10:17:35;20.83;;;18.83;;
75818;SDS011;64453;51.944;9.796;2023-04-09T10:20:04;20.63;;;18.63;;
75818;SDS011;64453;51.944;9.796;2023-04-09T10:22:39;20.27;;;18.27;;
75818;SDS011;64453;51.944;9.796;2023-04-09T10:25:12;21.77;;;19.47;;
75818;SDS011;64453;51.944;9.796;2023-04-09T10:27:40;20.73;;;18.73;;
75818;SDS011;64453;51.944;9.796;2023-04-09T10:30:08;20.20;;;18.27;;
75818;SDS011;64453;51.944;9.796;2023-04-09T10:32:35;21.87;;;19.67;;
75818;SDS011;64453;51.944;9.796;2023-04-09T10:35:06;21.80;;;19.67;;
75818;SDS011;64453;51.944;9.796;2023-04-09T10:37:35;20.73;;;18.73;;
75818;SDS011;64453;51.944;9.796;2023-04-09T10:40:02;19.03;;;17.23;;
75818;SDS011;64453;51.944;9.796;2023-04-09T10:42:31;20.53;;;18.53;;
75818;SDS011;64453;51.944;9.796;2023-04-09T10:45:04;19.43;;;17.47;;
75818;SDS011;64453;51.944;9.796;2023-04-09T10:47:34;18.50;;;16.70;;
75818;SDS011;64453;51.944;9.796;2023-04-09T10:50:15;20.30;;;18.30;;
75818;SDS011;64453;51.944;9.796;2023-04-09T10:52:44;19.07;;;17.10;;
75818;SDS011;64453;51.944;9.796;2023-04-09T10:58:00;19.53;;;17.60;;
75818;SDS011;64453;51.944;9.796;2023-04-09T11:00:31;18.30;;;16.50;;
75818;SDS011;64453;51.944;9.796;2023-04-09T11:03:09;18.20;;;16.40;;
75818;SDS011;64453;51.944;9.796;2023-04-09T11:05:46;18.60;;;16.60;;
75818;SDS011;64453;51.944;9.796;2023-04-09T11:08:16;18.20;;;16.40;;
75818;SDS011;64453;51.944;9.796;2023-04-09T11:10:44;17.63;;;15.90;;
75818;SDS011;64453;51.944;9.796;2023-04-09T11:13:12;16.70;;;15.20;;
75818;SDS011;64453;51.944;9.796;2023-04-09T11:15:42;17.90;;;16.20;;
75818;SDS011;64453;51.944;9.796;2023-04-09T11:18:12;17.13;;;15.43;;
75818;SDS011;64453;51.944;9.796;2023-04-09T11:20:40;17.73;;;16.03;;
75818;SDS011;64453;51.944;9.796;2023-04-09T11:23:07;17.10;;;15.40;;
75818;SDS011;64453;51.944;9.796;2023-04-09T11:25:35;16.00;;;14.60;;
75818;SDS011;64453;51.944;9.796;2023-04-09T11:28:02;16.57;;;14.93;;
75818;SDS011;64453;51.944;9.796;2023-04-09T11:30:30;16.80;;;15.20;;
75818;SDS011;64453;51.944;9.796;2023-04-09T11:33:00;16.67;;;15.13;;
75818;SDS011;64453;51.944;9.796;2023-04-09T11:35:27;16.07;;;14.60;;
75818;SDS011;64453;51.944;9.796;2023-04-09T11:37:54;15.63;;;14.17;;
75818;SDS011;64453;51.944;9.796;2023-04-09T11:40:21;75.70;;;67.60;;
75818;SDS011;64453;51.944;9.796;2023-04-09T11:42:50;170.77;;;152.57;;
75818;SDS011;64453;51.944;9.796;2023-04-09T11:45:19;63.07;;;56.63;;
75818;SDS011;64453;51.944;9.796;2023-04-09T11:47:49;27.83;;;25.03;;
75818;SDS011;64453;51.944;9.796;2023-04-09T11:50:18;18.37;;;16.47;;
75818;SDS011;64453;51.944;9.796;2023-04-09T11:52:46;15.63;;;14.10;;
75818;SDS011;64453;51.944;9.796;2023-04-09T11:55:21;17.07;;;15.47;;
75818;SDS011;64453;51.944;9.796;2023-04-09T11:57:50;14.30;;;13.00;;
75818;SDS011;64453;51.944;9.796;2023-04-09T12:00:19;15.50;;;14.10;;
75818;SDS011;64453;51.944;9.796;2023-04-09T12:02:49;14.57;;;13.17;;
75818;SDS011;64453;51.944;9.796;2023-04-09T12:05:26;15.13;;;13.63;;
75818;SDS011;64453;51.944;9.796;2023-04-09T12:07:56;14.67;;;13.17;;
75818;SDS011;64453;51.944;9.796;2023-04-09T12:10:26;13.60;;;12.40;;
75818;SDS011;64453;51.944;9.796;2023-04-09T12:12:54;14.37;;;13.07;;
75818;SDS011;64453;51.944;9.796;2023-04-09T12:15:29;14.10;;;12.70;;
75818;SDS011;64453;51.944;9.796;2023-04-09T12:17:58;13.00;;;11.83;;
75818;SDS011;64453;51.944;9.796;2023-04-09T12:20:27;12.10;;;11.10;;
75818;SDS011;64453;51.944;9.796;2023-04-09T12:22:56;12.80;;;11.70;;
75818;SDS011;64453;51.944;9.796;2023-04-09T12:25:25;12.37;;;11.37;;
75818;SDS011;64453;51.944;9.796;2023-04-09T12:27:52;12.20;;;11.20;;
75818;SDS011;64453;51.944;9.796;2023-04-09T12:30:21;12.07;;;11.07;;
75818;SDS011;64453;51.944;9.796;2023-04-09T12:32:47;11.30;;;10.30;;
75818;SDS011;64453;51.944;9.796;2023-04-09T12:35:15;11.53;;;10.53;;
75818;SDS011;64453;51.944;9.796;2023-04-09T12:37:43;11.70;;;10.00;;
75818;SDS011;64453;51.944;9.796;2023-04-09T12:40:11;12.03;;;11.03;;
75818;SDS011;64453;51.944;9.796;2023-04-09T12:42:39;12.20;;;11.10;;
75818;SDS011;64453;51.944;9.796;2023-04-09T12:45:06;11.97;;;10.97;;
75818;SDS011;64453;51.944;9.796;2023-04-09T12:47:34;11.33;;;10.33;;
75818;SDS011;64453;51.944;9.796;2023-04-09T12:50:02;11.53;;;10.53;;
75818;SDS011;64453;51.944;9.796;2023-04-09T12:52:29;13.07;;;11.87;;
75818;SDS011;64453;51.944;9.796;2023-04-09T12:54:57;12.20;;;11.10;;
75818;SDS011;64453;51.944;9.796;2023-04-09T12:57:24;11.27;;;10.27;;
75818;SDS011;64453;51.944;9.796;2023-04-09T12:59:51;11.60;;;10.60;;
75818;SDS011;64453;51.944;9.796;2023-04-09T13:02:19;10.70;;;9.80;;
75818;SDS011;64453;51.944;9.796;2023-04-09T13:04:46;10.83;;;9.93;;
75818;SDS011;64453;51.944;9.796;2023-04-09T13:07:13;12.80;;;11.70;;
75818;SDS011;64453;51.944;9.796;2023-04-09T13:09:41;14.17;;;12.87;;
75818;SDS011;64453;51.944;9.796;2023-04-09T13:12:09;12.80;;;11.60;;
75818;SDS011;64453;51.944;9.796;2023-04-09T13:14:37;11.80;;;10.80;;
75818;SDS011;64453;51.944;9.796;2023-04-09T13:17:04;13.00;;;11.90;;
75818;SDS011;64453;51.944;9.796;2023-04-09T13:19:31;12.33;;;11.23;;
75818;SDS011;64453;51.944;9.796;2023-04-09T13:21:58;14.10;;;12.77;;
75818;SDS011;64453;51.944;9.796;2023-04-09T13:24:25;12.40;;;11.30;;
75818;SDS011;64453;51.944;9.796;2023-04-09T13:26:52;14.00;;;12.70;;
75818;SDS011;64453;51.944;9.796;2023-04-09T13:29:20;12.43;;;11.33;;
75818;SDS011;64453;51.944;9.796;2023-04-09T13:31:47;12.17;;;11.07;;
75818;SDS011;64453;51.944;9.796;2023-04-09T13:34:14;13.80;;;12.50;;
75818;SDS011;64453;51.944;9.796;2023-04-09T13:36:41;14.80;;;13.50;;
75818;SDS011;64453;51.944;9.796;2023-04-09T13:39:08;13.93;;;12.73;;
75818;SDS011;64453;51.944;9.796;2023-04-09T13:41:35;12.97;;;11.77;;
75818;SDS011;64453;51.944;9.796;2023-04-09T13:44:02;13.93;;;12.73;;
75818;SDS011;64453;51.944;9.796;2023-04-09T13:46:30;13.20;;;12.00;;
75818;SDS011;64453;51.944;9.796;2023-04-09T13:48:57;13.43;;;12.20;;
75818;SDS011;64453;51.944;9.796;2023-04-09T13:51:25;13.00;;;11.90;;
75818;SDS011;64453;51.944;9.796;2023-04-09T13:53:53;12.70;;;11.50;;
75818;SDS011;64453;51.944;9.796;2023-04-09T13:56:20;12.40;;;11.33;;
75818;SDS011;64453;51.944;9.796;2023-04-09T13:58:47;12.77;;;11.67;;
75818;SDS011;64453;51.944;9.796;2023-04-09T14:01:14;13.23;;;12.13;;
75818;SDS011;64453;51.944;9.796;2023-04-09T14:03:42;14.53;;;13.27;;
75818;SDS011;64453;51.944;9.796;2023-04-09T14:06:10;13.53;;;12.33;;
75818;SDS011;64453;51.944;9.796;2023-04-09T14:08:37;12.40;;;11.30;;
75818;SDS011;64453;51.944;9.796;2023-04-09T14:11:04;12.17;;;11.13;;
75818;SDS011;64453;51.944;9.796;2023-04-09T14:13:31;14.63;;;13.33;;
75818;SDS011;64453;51.944;9.796;2023-04-09T14:15:58;13.50;;;12.30;;
75818;SDS011;64453;51.944;9.796;2023-04-09T14:18:25;13.67;;;12.40;;
75818;SDS011;64453;51.944;9.796;2023-04-09T14:20:53;12.90;;;11.70;;
75818;SDS011;64453;51.944;9.796;2023-04-09T14:23:20;12.30;;;11.10;;
75818;SDS011;64453;51.944;9.796;2023-04-09T14:25:46;13.13;;;12.03;;
75818;SDS011;64453;51.944;9.796;2023-04-09T14:28:13;12.20;;;11.20;;
75818;SDS011;64453;51.944;9.796;2023-04-09T14:30:40;26.57;;;24.10;;